sensor_id;sensor_type;location;lat;lon;timestamp;temperature;humidity
39919;DHT22;25589;51.552;13.424;2023-07-20T00:01:13;18.20;99.90
39919;DHT22;25589;51.552;13.424;2023-07-20T00:03:38;18.20;99.90
39919;DHT22;25589;51.552;13.424;2023-07-20T00:06:04;18.20;99.90
39919;DHT22;25589;51.552;13.424;2023-07-20T00:08:30;18.10;99.90
39919;DHT22;25589;51.552;13.424;2023-07-20T00:10:56;18.10;99.90
39919;DHT22;25589;51.552;13.424;2023-07-20T00:13:21;18.10;99.90
39919;DHT22;25589;51.552;13.424;2023-07-20T00:15:47;18.10;99.90
39919;DHT22;25589;51.552;13.424;2023-07-20T00:18:13;18.10;99.90
39919;DHT22;25589;51.552;13.424;2023-07-20T00:20:39;18.10;99.90
39919;DHT22;25589;51.552;13.424;2023-07-20T00:23:05;18.00;99.90
39919;DHT22;25589;51.552;13.424;2023-07-20T00:25:31;18.00;99.90
39919;DHT22;25589;51.552;13.424;2023-07-20T00:27:56;18.00;99.90
39919;DHT22;25589;51.552;13.424;2023-07-20T00:30:22;18.00;99.90
39919;DHT22;25589;51.552;13.424;2023-07-20T00:32:48;18.00;99.90
39919;DHT22;25589;51.552;13.424;2023-07-20T00:35:13;17.90;99.90
39919;DHT22;25589;51.552;13.424;2023-07-20T00:37:39;17.90;99.90
39919;DHT22;25589;51.552;13.424;2023-07-20T00:40:05;17.90;99.90
39919;DHT22;25589;51.552;13.424;2023-07-20T00:42:33;17.90;99.90
39919;DHT22;25589;51.552;13.424;2023-07-20T00:44:59;17.90;99.90
39919;DHT22;25589;51.552;13.424;2023-07-20T00:47:26;17.90;99.90
39919;DHT22;25589;51.552;13.424;2023-07-20T00:49:52;17.90;99.90
39919;DHT22;25589;51.552;13.424;2023-07-20T00:52:20;17.90;99.90
39919;DHT22;25589;51.552;13.424;2023-07-20T00:54:47;17.90;99.90
39919;DHT22;25589;51.552;13.424;2023-07-20T00:57:14;17.90;99.90
39919;DHT22;25589;51.552;13.424;2023-07-20T00:59:41;17.90;99.90
39919;DHT22;25589;51.552;13.424;2023-07-20T01:02:07;17.90;99.90
39919;DHT22;25589;51.552;13.424;2023-07-20T01:04:33;17.80;99.90
39919;DHT22;25589;51.552;13.424;2023-07-20T01:09:42;17.80;99.90
39919;DHT22;25589;51.552;13.424;2023-07-20T01:12:25;17.70;99.90
39919;DHT22;25589;51.552;13.424;2023-07-20T01:14:51;17.60;99.90
39919;DHT22;25589;51.552;13.424;2023-07-20T01:17:17;17.50;99.90
39919;DHT22;25589;51.552;13.424;2023-07-20T01:19:43;17.50;99.90
39919;DHT22;25589;51.552;13.424;2023-07-20T01:33:38;17.40;99.90
39919;DHT22;25589;51.552;13.424;2023-07-20T01:36:07;17.20;99.90
39919;DHT22;25589;51.552;13.424;2023-07-20T01:38:33;17.30;99.90
39919;DHT22;25589;51.552;13.424;2023-07-20T01:40:59;17.50;99.90
39919;DHT22;25589;51.552;13.424;2023-07-20T01:43:25;17.10;99.90
39919;DHT22;25589;51.552;13.424;2023-07-20T01:45:51;17.30;99.90
39919;DHT22;25589;51.552;13.424;2023-07-20T01:48:16;17.30;99.90
39919;DHT22;25589;51.552;13.424;2023-07-20T01:50:42;17.20;99.90
39919;DHT22;25589;51.552;13.424;2023-07-20T01:53:08;17.10;99.90
39919;DHT22;25589;51.552;13.424;2023-07-20T01:55:33;17.20;99.90
39919;DHT22;25589;51.552;13.424;2023-07-20T01:57:59;17.20;99.90
39919;DHT22;25589;51.552;13.424;2023-07-20T02:00:26;17.10;99.90
39919;DHT22;25589;51.552;13.424;2023-07-20T02:02:52;17.10;99.90
39919;DHT22;25589;51.552;13.424;2023-07-20T02:05:17;17.10;99.90
39919;DHT22;25589;51.552;13.424;2023-07-20T02:07:43;15.80;99.90
39919;DHT22;25589;51.552;13.424;2023-07-20T02:10:09;17.10;99.90
39919;DHT22;25589;51.552;13.424;2023-07-20T02:12:35;17.10;99.90
39919;DHT22;25589;51.552;13.424;2023-07-20T02:15:01;17.60;99.90
39919;DHT22;25589;51.552;13.424;2023-07-20T02:17:27;17.30;99.90
39919;DHT22;25589;51.552;13.424;2023-07-20T02:19:53;17.00;99.90
39919;DHT22;25589;51.552;13.424;2023-07-20T02:22:20;17.10;99.90
39919;DHT22;25589;51.552;13.424;2023-07-20T02:24:46;17.10;99.90
39919;DHT22;25589;51.552;13.424;2023-07-20T02:27:11;17.10;99.90
39919;DHT22;25589;51.552;13.424;2023-07-20T02:29:37;17.20;99.90
39919;DHT22;25589;51.552;13.424;2023-07-20T02:32:03;17.10;99.90
39919;DHT22;25589;51.552;13.424;2023-07-20T02:34:29;17.10;99.90
39919;DHT22;25589;51.552;13.424;2023-07-20T02:36:55;17.20;99.90
39919;DHT22;25589;51.552;13.424;2023-07-20T02:39:23;17.10;99.90
39919;DHT22;25589;51.552;13.424;2023-07-20T02:41:48;17.20;99.90
39919;DHT22;25589;51.552;13.424;2023-07-20T02:44:14;17.20;99.90
39919;DHT22;25589;51.552;13.424;2023-07-20T02:46:40;17.20;99.90
39919;DHT22;25589;51.552;13.424;2023-07-20T02:49:06;17.20;99.90
39919;DHT22;25589;51.552;13.424;2023-07-20T02:51:31;17.20;99.90
39919;DHT22;25589;51.552;13.424;2023-07-20T02:53:57;17.20;99.90
39919;DHT22;25589;51.552;13.424;2023-07-20T02:56:23;17.10;99.90
39919;DHT22;25589;51.552;13.424;2023-07-20T02:58:49;17.10;99.90
39919;DHT22;25589;51.552;13.424;2023-07-20T03:01:15;17.10;99.90
39919;DHT22;25589;51.552;13.424;2023-07-20T03:03:41;17.10;99.90
39919;DHT22;25589;51.552;13.424;2023-07-20T03:06:07;17.10;99.90
39919;DHT22;25589;51.552;13.424;2023-07-20T03:08:34;17.10;99.90
39919;DHT22;25589;51.552;13.424;2023-07-20T03:11:01;17.10;99.90
39919;DHT22;25589;51.552;13.424;2023-07-20T03:13:28;17.10;99.90
39919;DHT22;25589;51.552;13.424;2023-07-20T03:15:54;17.10;99.90
39919;DHT22;25589;51.552;13.424;2023-07-20T03:18:19;17.10;99.90
39919;DHT22;25589;51.552;13.424;2023-07-20T03:20:45;17.00;99.90
39919;DHT22;25589;51.552;13.424;2023-07-20T03:23:11;17.10;99.90
39919;DHT22;25589;51.552;13.424;2023-07-20T03:25:37;17.10;99.90
39919;DHT22;25589;51.552;13.424;2023-07-20T03:28:04;17.20;99.90
39919;DHT22;25589;51.552;13.424;2023-07-20T03:30:29;17.10;99.90
39919;DHT22;25589;51.552;13.424;2023-07-20T03:32:55;17.00;99.90
39919;DHT22;25589;51.552;13.424;2023-07-20T03:35:21;17.10;99.90
39919;DHT22;25589;51.552;13.424;2023-07-20T03:37:46;16.80;99.90
39919;DHT22;25589;51.552;13.424;2023-07-20T03:40:12;17.00;99.90
39919;DHT22;25589;51.552;13.424;2023-07-20T03:42:38;17.30;99.90
39919;DHT22;25589;51.552;13.424;2023-07-20T03:45:05;17.20;99.90
39919;DHT22;25589;51.552;13.424;2023-07-20T03:47:31;17.00;99.90
39919;DHT22;25589;51.552;13.424;2023-07-20T03:49:57;17.00;99.90
39919;DHT22;25589;51.552;13.424;2023-07-20T03:52:22;16.90;99.90
39919;DHT22;25589;51.552;13.424;2023-07-20T03:54:48;16.80;99.90
39919;DHT22;25589;51.552;13.424;2023-07-20T03:57:14;16.90;99.90
39919;DHT22;25589;51.552;13.424;2023-07-20T03:59:39;17.00;99.90
39919;DHT22;25589;51.552;13.424;2023-07-20T04:02:09;16.60;99.90
39919;DHT22;25589;51.552;13.424;2023-07-20T04:04:35;17.00;99.90
39919;DHT22;25589;51.552;13.424;2023-07-20T04:07:01;17.00;99.90
39919;DHT22;25589;51.552;13.424;2023-07-20T04:09:26;17.40;99.90
39919;DHT22;25589;51.552;13.424;2023-07-20T04:14:18;17.00;99.90
39919;DHT22;25589;51.552;13.424;2023-07-20T04:19:12;17.10;99.90
39919;DHT22;25589;51.552;13.424;2023-07-20T04:21:40;17.10;99.90
39919;DHT22;25589;51.552;13.424;2023-07-20T04:24:07;17.10;99.90
39919;DHT22;25589;51.552;13.424;2023-07-20T04:26:32;17.20;99.90
39919;DHT22;25589;51.552;13.424;2023-07-20T04:28:58;16.90;99.90
39919;DHT22;25589;51.552;13.424;2023-07-20T04:31:34;16.90;99.90
39919;DHT22;25589;51.552;13.424;2023-07-20T04:33:59;17.20;99.90
39919;DHT22;25589;51.552;13.424;2023-07-20T04:36:25;17.20;99.90
39919;DHT22;25589;51.552;13.424;2023-07-20T04:38:53;17.50;99.90
39919;DHT22;25589;51.552;13.424;2023-07-20T04:41:20;17.20;99.90
39919;DHT22;25589;51.552;13.424;2023-07-20T04:43:47;17.20;99.90
39919;DHT22;25589;51.552;13.424;2023-07-20T04:46:17;17.30;99.90
39919;DHT22;25589;51.552;13.424;2023-07-20T04:48:45;17.30;99.90
39919;DHT22;25589;51.552;13.424;2023-07-20T04:51:11;17.40;99.90
39919;DHT22;25589;51.552;13.424;2023-07-20T04:53:37;17.40;99.90
39919;DHT22;25589;51.552;13.424;2023-07-20T04:56:03;17.30;99.90
39919;DHT22;25589;51.552;13.424;2023-07-20T04:58:29;17.40;99.90
39919;DHT22;25589;51.552;13.424;2023-07-20T05:00:55;17.50;99.90
39919;DHT22;25589;51.552;13.424;2023-07-20T05:03:21;17.60;99.90
39919;DHT22;25589;51.552;13.424;2023-07-20T05:05:47;17.70;99.90
39919;DHT22;25589;51.552;13.424;2023-07-20T05:08:13;17.60;99.90
39919;DHT22;25589;51.552;13.424;2023-07-20T05:10:39;17.40;99.90
39919;DHT22;25589;51.552;13.424;2023-07-20T05:13:05;17.60;99.90
39919;DHT22;25589;51.552;13.424;2023-07-20T05:15:33;17.70;99.90
39919;DHT22;25589;51.552;13.424;2023-07-20T05:18:00;17.60;99.90
39919;DHT22;25589;51.552;13.424;2023-07-20T05:20:26;17.60;99.90
39919;DHT22;25589;51.552;13.424;2023-07-20T05:22:53;17.50;99.90
39919;DHT22;25589;51.552;13.424;2023-07-20T05:25:19;17.60;99.90
39919;DHT22;25589;51.552;13.424;2023-07-20T05:27:45;17.50;99.90
39919;DHT22;25589;51.552;13.424;2023-07-20T05:30:11;17.50;99.90
39919;DHT22;25589;51.552;13.424;2023-07-20T05:32:37;17.60;99.90
39919;DHT22;25589;51.552;13.424;2023-07-20T05:35:03;17.60;99.90
39919;DHT22;25589;51.552;13.424;2023-07-20T05:37:28;17.50;99.90
39919;DHT22;25589;51.552;13.424;2023-07-20T05:39:54;17.70;99.90
39919;DHT22;25589;51.552;13.424;2023-07-20T05:42:20;17.70;99.90
39919;DHT22;25589;51.552;13.424;2023-07-20T05:44:45;17.70;99.90
39919;DHT22;25589;51.552;13.424;2023-07-20T05:47:12;17.70;99.90
39919;DHT22;25589;51.552;13.424;2023-07-20T05:49:38;17.80;99.90
39919;DHT22;25589;51.552;13.424;2023-07-20T05:52:03;17.80;99.90
39919;DHT22;25589;51.552;13.424;2023-07-20T05:54:29;17.90;99.90
39919;DHT22;25589;51.552;13.424;2023-07-20T05:56:55;17.90;99.90
39919;DHT22;25589;51.552;13.424;2023-07-20T05:59:20;17.90;99.90
39919;DHT22;25589;51.552;13.424;2023-07-20T06:01:46;18.00;99.90
39919;DHT22;25589;51.552;13.424;2023-07-20T06:04:14;18.00;99.90
39919;DHT22;25589;51.552;13.424;2023-07-20T06:06:39;18.00;99.90
39919;DHT22;25589;51.552;13.424;2023-07-20T06:09:05;17.90;99.90
39919;DHT22;25589;51.552;13.424;2023-07-20T06:11:32;18.00;99.90
39919;DHT22;25589;51.552;13.424;2023-07-20T06:13:58;17.90;99.90
39919;DHT22;25589;51.552;13.424;2023-07-20T06:16:24;18.30;99.90
39919;DHT22;25589;51.552;13.424;2023-07-20T06:18:49;18.00;99.90
39919;DHT22;25589;51.552;13.424;2023-07-20T06:21:15;18.10;99.90
39919;DHT22;25589;51.552;13.424;2023-07-20T06:23:41;18.10;99.90
39919;DHT22;25589;51.552;13.424;2023-07-20T06:26:07;18.10;99.90
39919;DHT22;25589;51.552;13.424;2023-07-20T06:28:33;18.10;99.90
39919;DHT22;25589;51.552;13.424;2023-07-20T06:31:00;18.10;99.90
39919;DHT22;25589;51.552;13.424;2023-07-20T06:33:26;18.20;99.90
39919;DHT22;25589;51.552;13.424;2023-07-20T06:35:51;18.30;99.90
39919;DHT22;25589;51.552;13.424;2023-07-20T06:38:18;18.30;99.90
39919;DHT22;25589;51.552;13.424;2023-07-20T06:40:46;18.50;99.90
39919;DHT22;25589;51.552;13.424;2023-07-20T06:43:11;18.50;99.90
39919;DHT22;25589;51.552;13.424;2023-07-20T06:45:37;18.30;99.90
39919;DHT22;25589;51.552;13.424;2023-07-20T06:48:03;18.40;99.90
39919;DHT22;25589;51.552;13.424;2023-07-20T06:50:29;18.10;99.90
39919;DHT22;25589;51.552;13.424;2023-07-20T06:52:54;18.40;99.90
39919;DHT22;25589;51.552;13.424;2023-07-20T06:55:20;18.40;99.90
39919;DHT22;25589;51.552;13.424;2023-07-20T06:57:45;18.40;99.90
39919;DHT22;25589;51.552;13.424;2023-07-20T07:00:11;18.50;99.90
39919;DHT22;25589;51.552;13.424;2023-07-20T07:02:37;18.40;99.90
39919;DHT22;25589;51.552;13.424;2023-07-20T07:05:03;18.50;99.90
39919;DHT22;25589;51.552;13.424;2023-07-20T07:07:29;18.40;99.90
39919;DHT22;25589;51.552;13.424;2023-07-20T07:09:55;18.40;99.90
39919;DHT22;25589;51.552;13.424;2023-07-20T07:12:20;18.40;99.90
39919;DHT22;25589;51.552;13.424;2023-07-20T07:14:46;18.50;99.90
39919;DHT22;25589;51.552;13.424;2023-07-20T07:17:12;18.40;99.90
39919;DHT22;25589;51.552;13.424;2023-07-20T07:19:37;18.50;99.90
39919;DHT22;25589;51.552;13.424;2023-07-20T07:22:04;18.50;99.90
39919;DHT22;25589;51.552;13.424;2023-07-20T07:24:29;18.50;99.90
39919;DHT22;25589;51.552;13.424;2023-07-20T07:26:59;18.40;99.90
39919;DHT22;25589;51.552;13.424;2023-07-20T07:29:25;18.40;99.90
39919;DHT22;25589;51.552;13.424;2023-07-20T07:31:51;18.50;99.90
39919;DHT22;25589;51.552;13.424;2023-07-20T07:34:17;18.40;99.90
39919;DHT22;25589;51.552;13.424;2023-07-20T07:36:43;18.50;99.90
39919;DHT22;25589;51.552;13.424;2023-07-20T07:39:08;18.60;99.90
39919;DHT22;25589;51.552;13.424;2023-07-20T07:41:35;18.60;99.90
39919;DHT22;25589;51.552;13.424;2023-07-20T07:44:00;18.60;99.90
39919;DHT22;25589;51.552;13.424;2023-07-20T07:46:26;19.20;99.90
39919;DHT22;25589;51.552;13.424;2023-07-20T07:48:51;18.70;99.90
39919;DHT22;25589;51.552;13.424;2023-07-20T07:51:17;18.80;99.90
39919;DHT22;25589;51.552;13.424;2023-07-20T07:53:42;19.00;99.90
39919;DHT22;25589;51.552;13.424;2023-07-20T07:56:09;19.00;99.90
39919;DHT22;25589;51.552;13.424;2023-07-20T07:58:34;19.00;99.90
39919;DHT22;25589;51.552;13.424;2023-07-20T08:01:00;19.00;99.90
39919;DHT22;25589;51.552;13.424;2023-07-20T08:03:26;19.20;99.90
39919;DHT22;25589;51.552;13.424;2023-07-20T08:05:54;19.40;99.90
39919;DHT22;25589;51.552;13.424;2023-07-20T08:08:20;19.30;99.90
39919;DHT22;25589;51.552;13.424;2023-07-20T08:10:46;19.30;99.90
39919;DHT22;25589;51.552;13.424;2023-07-20T08:13:13;19.40;99.90
39919;DHT22;25589;51.552;13.424;2023-07-20T08:15:39;19.30;99.90
39919;DHT22;25589;51.552;13.424;2023-07-20T08:18:05;19.30;99.90
39919;DHT22;25589;51.552;13.424;2023-07-20T08:20:31;19.30;99.90
39919;DHT22;25589;51.552;13.424;2023-07-20T08:22:57;19.20;99.90
39919;DHT22;25589;51.552;13.424;2023-07-20T08:25:25;19.20;99.90
39919;DHT22;25589;51.552;13.424;2023-07-20T08:27:50;19.40;99.90
39919;DHT22;25589;51.552;13.424;2023-07-20T08:30:16;19.50;99.90
39919;DHT22;25589;51.552;13.424;2023-07-20T08:32:42;19.80;99.90
39919;DHT22;25589;51.552;13.424;2023-07-20T08:35:08;20.10;99.90
39919;DHT22;25589;51.552;13.424;2023-07-20T08:37:34;20.10;99.90
39919;DHT22;25589;51.552;13.424;2023-07-20T08:40:00;20.00;99.90
39919;DHT22;25589;51.552;13.424;2023-07-20T08:42:27;19.90;99.90
39919;DHT22;25589;51.552;13.424;2023-07-20T08:44:53;19.60;99.90
39919;DHT22;25589;51.552;13.424;2023-07-20T08:47:21;21.00;99.90
39919;DHT22;25589;51.552;13.424;2023-07-20T08:49:50;19.60;99.90
39919;DHT22;25589;51.552;13.424;2023-07-20T08:52:16;19.70;99.90
39919;DHT22;25589;51.552;13.424;2023-07-20T08:54:41;19.90;99.90
39919;DHT22;25589;51.552;13.424;2023-07-20T08:57:08;20.20;99.90
39919;DHT22;25589;51.552;13.424;2023-07-20T08:59:36;20.40;99.90
39919;DHT22;25589;51.552;13.424;2023-07-20T09:02:04;20.60;99.90
39919;DHT22;25589;51.552;13.424;2023-07-20T09:04:30;20.70;99.90
39919;DHT22;25589;51.552;13.424;2023-07-20T09:06:57;20.60;99.90
39919;DHT22;25589;51.552;13.424;2023-07-20T09:09:23;20.70;99.90
39919;DHT22;25589;51.552;13.424;2023-07-20T09:11:51;20.80;99.90
39919;DHT22;25589;51.552;13.424;2023-07-20T09:14:17;21.20;99.90
39919;DHT22;25589;51.552;13.424;2023-07-20T09:16:55;21.20;99.90
39919;DHT22;25589;51.552;13.424;2023-07-20T09:19:21;21.20;99.90
39919;DHT22;25589;51.552;13.424;2023-07-20T09:21:48;21.30;99.90
39919;DHT22;25589;51.552;13.424;2023-07-20T09:24:15;21.10;99.90
39919;DHT22;25589;51.552;13.424;2023-07-20T09:26:45;21.10;99.90
39919;DHT22;25589;51.552;13.424;2023-07-20T09:29:14;21.20;99.90
39919;DHT22;25589;51.552;13.424;2023-07-20T09:31:39;21.40;99.90
39919;DHT22;25589;51.552;13.424;2023-07-20T09:34:08;21.30;99.90
39919;DHT22;25589;51.552;13.424;2023-07-20T09:36:35;21.60;99.90
39919;DHT22;25589;51.552;13.424;2023-07-20T09:39:02;21.40;99.90
39919;DHT22;25589;51.552;13.424;2023-07-20T09:41:27;21.60;99.90
39919;DHT22;25589;51.552;13.424;2023-07-20T09:43:54;21.50;99.90
39919;DHT22;25589;51.552;13.424;2023-07-20T09:46:20;21.60;99.90
39919;DHT22;25589;51.552;13.424;2023-07-20T09:48:52;21.60;99.90
39919;DHT22;25589;51.552;13.424;2023-07-20T09:51:22;21.50;99.90
39919;DHT22;25589;51.552;13.424;2023-07-20T09:53:50;21.70;99.90
39919;DHT22;25589;51.552;13.424;2023-07-20T09:56:18;21.90;99.90
39919;DHT22;25589;51.552;13.424;2023-07-20T09:58:46;22.10;99.90
39919;DHT22;25589;51.552;13.424;2023-07-20T10:01:13;22.10;99.90
39919;DHT22;25589;51.552;13.424;2023-07-20T10:03:43;22.10;99.90
39919;DHT22;25589;51.552;13.424;2023-07-20T10:06:14;22.20;99.90
39919;DHT22;25589;51.552;13.424;2023-07-20T10:08:41;22.40;99.90
39919;DHT22;25589;51.552;13.424;2023-07-20T10:11:08;22.50;99.90
39919;DHT22;25589;51.552;13.424;2023-07-20T10:13:38;22.70;99.90
39919;DHT22;25589;51.552;13.424;2023-07-20T10:16:10;22.70;99.90
39919;DHT22;25589;51.552;13.424;2023-07-20T10:19:20;22.70;99.90
39919;DHT22;25589;51.552;13.424;2023-07-20T10:21:24;22.80;99.90
39919;DHT22;25589;51.552;13.424;2023-07-20T10:23:51;22.80;99.90
39919;DHT22;25589;51.552;13.424;2023-07-20T10:26:16;22.60;99.90
39919;DHT22;25589;51.552;13.424;2023-07-20T10:28:42;22.50;99.90
39919;DHT22;25589;51.552;13.424;2023-07-20T10:31:10;22.60;99.90
39919;DHT22;25589;51.552;13.424;2023-07-20T10:33:37;22.60;99.90
39919;DHT22;25589;51.552;13.424;2023-07-20T10:36:04;22.50;99.90
39919;DHT22;25589;51.552;13.424;2023-07-20T10:41:18;22.90;99.90
39919;DHT22;25589;51.552;13.424;2023-07-20T10:43:44;23.10;99.90
39919;DHT22;25589;51.552;13.424;2023-07-20T10:46:13;23.20;99.90
39919;DHT22;25589;51.552;13.424;2023-07-20T10:51:30;23.70;99.90
39919;DHT22;25589;51.552;13.424;2023-07-20T10:53:56;23.80;99.90
39919;DHT22;25589;51.552;13.424;2023-07-20T10:56:26;23.90;99.90
39919;DHT22;25589;51.552;13.424;2023-07-20T10:58:59;23.80;99.90
39919;DHT22;25589;51.552;13.424;2023-07-20T11:01:29;24.10;99.90
39919;DHT22;25589;51.552;13.424;2023-07-20T11:03:58;24.30;99.90
39919;DHT22;25589;51.552;13.424;2023-07-20T11:09:04;23.90;99.90
39919;DHT22;25589;51.552;13.424;2023-07-20T11:11:31;23.70;99.90
39919;DHT22;25589;51.552;13.424;2023-07-20T11:14:23;23.70;99.90
39919;DHT22;25589;51.552;13.424;2023-07-20T11:16:48;23.90;99.90
39919;DHT22;25589;51.552;13.424;2023-07-20T11:19:34;23.90;99.90
39919;DHT22;25589;51.552;13.424;2023-07-20T11:21:59;23.90;99.90
39919;DHT22;25589;51.552;13.424;2023-07-20T11:24:25;23.60;99.90
39919;DHT22;25589;51.552;13.424;2023-07-20T11:26:52;23.40;99.90
39919;DHT22;25589;51.552;13.424;2023-07-20T11:29:19;23.10;99.90
39919;DHT22;25589;51.552;13.424;2023-07-20T11:31:46;22.90;99.90
39919;DHT22;25589;51.552;13.424;2023-07-20T11:34:13;22.60;99.90
39919;DHT22;25589;51.552;13.424;2023-07-20T11:36:44;22.30;99.90
39919;DHT22;25589;51.552;13.424;2023-07-20T11:39:12;22.00;99.90
39919;DHT22;25589;51.552;13.424;2023-07-20T11:41:39;21.70;99.90
39919;DHT22;25589;51.552;13.424;2023-07-20T11:44:10;21.30;99.90
39919;DHT22;25589;51.552;13.424;2023-07-20T11:46:39;20.90;99.90
39919;DHT22;25589;51.552;13.424;2023-07-20T11:49:05;20.70;99.90
39919;DHT22;25589;51.552;13.424;2023-07-20T11:51:31;20.60;99.90
39919;DHT22;25589;51.552;13.424;2023-07-20T11:53:58;20.70;99.90
39919;DHT22;25589;51.552;13.424;2023-07-20T11:56:25;20.80;99.90
39919;DHT22;25589;51.552;13.424;2023-07-20T11:58:53;21.00;99.90
39919;DHT22;25589;51.552;13.424;2023-07-20T12:01:19;21.30;99.90
39919;DHT22;25589;51.552;13.424;2023-07-20T12:03:47;21.50;99.90
39919;DHT22;25589;51.552;13.424;2023-07-20T12:06:13;21.60;99.90
39919;DHT22;25589;51.552;13.424;2023-07-20T12:08:43;21.80;99.90
39919;DHT22;25589;51.552;13.424;2023-07-20T12:11:10;22.00;99.90
39919;DHT22;25589;51.552;13.424;2023-07-20T12:13:45;22.10;99.90
39919;DHT22;25589;51.552;13.424;2023-07-20T12:16:14;22.30;99.90
39919;DHT22;25589;51.552;13.424;2023-07-20T12:18:42;22.40;99.90
39919;DHT22;25589;51.552;13.424;2023-07-20T12:21:08;22.20;99.90
39919;DHT22;25589;51.552;13.424;2023-07-20T12:23:41;22.30;99.90
39919;DHT22;25589;51.552;13.424;2023-07-20T12:26:08;22.50;99.90
39919;DHT22;25589;51.552;13.424;2023-07-20T12:28:41;22.50;99.90
39919;DHT22;25589;51.552;13.424;2023-07-20T12:31:08;22.80;99.90
39919;DHT22;25589;51.552;13.424;2023-07-20T12:33:33;22.90;99.90
39919;DHT22;25589;51.552;13.424;2023-07-20T12:36:00;22.80;99.90
39919;DHT22;25589;51.552;13.424;2023-07-20T12:38:26;22.80;99.90
39919;DHT22;25589;51.552;13.424;2023-07-20T12:40:53;22.80;99.90
39919;DHT22;25589;51.552;13.424;2023-07-20T12:43:21;22.10;99.90
39919;DHT22;25589;51.552;13.424;2023-07-20T12:45:46;23.10;99.90
39919;DHT22;25589;51.552;13.424;2023-07-20T12:48:12;23.60;99.90
39919;DHT22;25589;51.552;13.424;2023-07-20T12:50:38;23.60;99.90
39919;DHT22;25589;51.552;13.424;2023-07-20T12:53:03;23.50;99.90
39919;DHT22;25589;51.552;13.424;2023-07-20T12:55:29;23.30;99.90
39919;DHT22;25589;51.552;13.424;2023-07-20T12:57:55;23.20;99.90
39919;DHT22;25589;51.552;13.424;2023-07-20T13:00:21;23.10;99.90
39919;DHT22;25589;51.552;13.424;2023-07-20T13:02:50;23.10;99.90
39919;DHT22;25589;51.552;13.424;2023-07-20T13:05:15;22.90;99.90
39919;DHT22;25589;51.552;13.424;2023-07-20T13:07:42;22.80;99.90
39919;DHT22;25589;51.552;13.424;2023-07-20T13:10:08;22.60;99.90
39919;DHT22;25589;51.552;13.424;2023-07-20T13:12:35;22.50;99.90
39919;DHT22;25589;51.552;13.424;2023-07-20T13:15:05;22.40;99.90
39919;DHT22;25589;51.552;13.424;2023-07-20T13:17:32;22.10;99.90
39919;DHT22;25589;51.552;13.424;2023-07-20T13:19:58;21.80;99.90
39919;DHT22;25589;51.552;13.424;2023-07-20T13:22:24;21.40;99.90
39919;DHT22;25589;51.552;13.424;2023-07-20T13:24:49;20.90;99.90
39919;DHT22;25589;51.552;13.424;2023-07-20T13:27:16;20.60;99.90
39919;DHT22;25589;51.552;13.424;2023-07-20T13:29:41;20.40;99.90
39919;DHT22;25589;51.552;13.424;2023-07-20T13:32:07;20.10;99.90
39919;DHT22;25589;51.552;13.424;2023-07-20T13:34:33;20.00;99.90
39919;DHT22;25589;51.552;13.424;2023-07-20T13:37:00;20.20;99.90
39919;DHT22;25589;51.552;13.424;2023-07-20T13:39:25;20.20;99.90
39919;DHT22;25589;51.552;13.424;2023-07-20T13:41:53;20.60;99.90
39919;DHT22;25589;51.552;13.424;2023-07-20T13:44:19;21.10;99.90
39919;DHT22;25589;51.552;13.424;2023-07-20T13:46:46;21.60;99.90
39919;DHT22;25589;51.552;13.424;2023-07-20T13:49:11;22.30;99.90
39919;DHT22;25589;51.552;13.424;2023-07-20T13:51:37;22.20;99.90
39919;DHT22;25589;51.552;13.424;2023-07-20T13:54:03;22.10;99.90
39919;DHT22;25589;51.552;13.424;2023-07-20T13:56:29;21.90;99.90
39919;DHT22;25589;51.552;13.424;2023-07-20T13:58:54;21.80;99.90
39919;DHT22;25589;51.552;13.424;2023-07-20T14:01:20;21.90;99.90
39919;DHT22;25589;51.552;13.424;2023-07-20T14:03:48;21.90;99.90
39919;DHT22;25589;51.552;13.424;2023-07-20T14:06:14;21.80;99.90
39919;DHT22;25589;51.552;13.424;2023-07-20T14:08:40;21.90;99.90
39919;DHT22;25589;51.552;13.424;2023-07-20T14:11:06;21.90;99.90
39919;DHT22;25589;51.552;13.424;2023-07-20T14:13:31;21.90;99.90
39919;DHT22;25589;51.552;13.424;2023-07-20T14:15:57;22.10;99.90
39919;DHT22;25589;51.552;13.424;2023-07-20T14:18:23;22.60;99.90
39919;DHT22;25589;51.552;13.424;2023-07-20T14:20:48;23.00;99.90
39919;DHT22;25589;51.552;13.424;2023-07-20T14:23:14;23.40;99.90
39919;DHT22;25589;51.552;13.424;2023-07-20T14:25:40;23.80;99.90
39919;DHT22;25589;51.552;13.424;2023-07-20T14:28:07;24.20;99.90
39919;DHT22;25589;51.552;13.424;2023-07-20T14:30:32;24.10;99.90
39919;DHT22;25589;51.552;13.424;2023-07-20T14:32:58;24.20;99.90
39919;DHT22;25589;51.552;13.424;2023-07-20T14:35:24;24.10;99.90
39919;DHT22;25589;51.552;13.424;2023-07-20T14:37:49;24.10;99.90
39919;DHT22;25589;51.552;13.424;2023-07-20T14:40:15;24.20;99.90
39919;DHT22;25589;51.552;13.424;2023-07-20T14:42:41;24.30;99.90
39919;DHT22;25589;51.552;13.424;2023-07-20T14:45:07;24.50;99.90
39919;DHT22;25589;51.552;13.424;2023-07-20T14:47:33;24.80;99.90
39919;DHT22;25589;51.552;13.424;2023-07-20T14:50:01;24.90;99.90
39919;DHT22;25589;51.552;13.424;2023-07-20T14:52:30;25.00;99.90
39919;DHT22;25589;51.552;13.424;2023-07-20T14:54:55;25.10;99.90
39919;DHT22;25589;51.552;13.424;2023-07-20T14:57:21;25.40;99.90
39919;DHT22;25589;51.552;13.424;2023-07-20T14:59:49;25.40;99.80
39919;DHT22;25589;51.552;13.424;2023-07-20T15:02:15;25.30;98.00
39919;DHT22;25589;51.552;13.424;2023-07-20T15:04:50;25.30;97.10
39919;DHT22;25589;51.552;13.424;2023-07-20T15:07:17;25.40;97.00
39919;DHT22;25589;51.552;13.424;2023-07-20T15:09:44;25.40;95.20
39919;DHT22;25589;51.552;13.424;2023-07-20T15:12:10;25.40;94.80
39919;DHT22;25589;51.552;13.424;2023-07-20T15:14:35;25.60;94.60
39919;DHT22;25589;51.552;13.424;2023-07-20T15:17:01;25.90;93.40
39919;DHT22;25589;51.552;13.424;2023-07-20T15:19:28;25.70;92.50
39919;DHT22;25589;51.552;13.424;2023-07-20T15:21:54;25.20;93.10
39919;DHT22;25589;51.552;13.424;2023-07-20T15:24:19;24.80;93.80
39919;DHT22;25589;51.552;13.424;2023-07-20T15:26:45;24.40;94.20
39919;DHT22;25589;51.552;13.424;2023-07-20T15:29:10;24.30;94.70
39919;DHT22;25589;51.552;13.424;2023-07-20T15:31:36;24.00;95.30
39919;DHT22;25589;51.552;13.424;2023-07-20T15:34:01;23.80;95.90
39919;DHT22;25589;51.552;13.424;2023-07-20T15:36:27;23.60;95.70
39919;DHT22;25589;51.552;13.424;2023-07-20T15:38:53;23.60;95.30